createdAt,value
2017-09-27T00:01:59.432Z,171.20
2017-09-27T00:04:31.760Z,176.43
2017-09-27T00:07:04.152Z,185.00
2017-09-27T00:09:36.522Z,171.00
2017-09-27T00:12:08.713Z,176.60
2017-09-27T00:14:41.130Z,168.13
2017-09-27T00:17:13.652Z,159.77
2017-09-27T00:19:46.094Z,176.03
2017-09-27T00:22:19.077Z,171.17
2017-09-27T00:24:51.348Z,189.80
2017-09-27T00:27:24.552Z,180.87
2017-09-27T00:29:56.749Z,208.50
2017-09-27T00:32:29.187Z,199.93
2017-09-27T00:35:01.380Z,201.20
2017-09-27T00:37:33.515Z,192.37
2017-09-27T00:40:05.722Z,183.07
2017-09-27T00:42:38.067Z,191.60
2017-09-27T00:45:10.456Z,193.03
2017-09-27T00:47:42.991Z,193.80
2017-09-27T00:50:15.181Z,207.97
2017-09-27T00:52:47.309Z,206.20
2017-09-27T00:55:20.310Z,204.43
2017-09-27T00:57:52.569Z,210.17
2017-09-27T01:00:24.993Z,207.83
2017-09-27T01:02:57.235Z,222.03
2017-09-27T01:05:30.093Z,212.80
2017-09-27T01:08:02.565Z,209.60
2017-09-27T01:10:34.946Z,204.27
2017-09-27T01:13:07.289Z,210.87
2017-09-27T01:15:39.588Z,202.80
2017-09-27T01:18:11.812Z,220.73
2017-09-27T01:20:44.064Z,204.23
2017-09-27T01:23:16.557Z,198.80
2017-09-27T01:25:49.691Z,195.53
2017-09-27T01:28:21.904Z,197.63
2017-09-27T01:30:54.251Z,201.47
2017-09-27T01:33:26.750Z,203.40
2017-09-27T01:35:59.092Z,177.33
2017-09-27T01:38:32.268Z,204.17
2017-09-27T01:41:04.694Z,196.23
2017-09-27T01:43:37.131Z,196.37
2017-09-27T01:46:09.516Z,193.63
2017-09-27T01:48:41.944Z,193.90
2017-09-27T01:51:14.173Z,190.97
2017-09-27T01:53:46.654Z,207.53
2017-09-27T01:56:19.732Z,222.40
2017-09-27T01:58:52.064Z,210.33
2017-09-27T02:01:24.210Z,208.93
2017-09-27T02:03:56.424Z,211.53
2017-09-27T02:06:29.510Z,225.37
2017-09-27T02:09:01.982Z,249.87
2017-09-27T02:11:34.444Z,235.27
2017-09-27T02:14:06.845Z,246.50
2017-09-27T02:16:39.073Z,250.63
2017-09-27T02:19:11.283Z,266.53
2017-09-27T02:21:43.564Z,267.87
2017-09-27T02:24:15.833Z,259.13
2017-09-27T02:26:54.960Z,264.50
2017-09-27T02:29:27.393Z,253.23
2017-09-27T02:31:59.768Z,258.07
2017-09-27T02:34:32.969Z,261.97
2017-09-27T02:37:05.104Z,256.73
2017-09-27T02:39:37.496Z,277.07
2017-09-27T02:42:09.884Z,276.70
2017-09-27T02:44:42.355Z,286.47
2017-09-27T02:47:14.648Z,274.03
2017-09-27T02:49:46.827Z,252.53
2017-09-27T02:52:19.921Z,271.63
2017-09-27T02:54:52.167Z,273.27
2017-09-27T02:57:24.432Z,270.07
2017-09-27T02:59:56.800Z,273.67
2017-09-27T03:02:29.041Z,281.70
2017-09-27T03:05:01.288Z,278.53
2017-09-27T03:07:33.762Z,275.10
2017-09-27T03:10:06.276Z,278.80
2017-09-27T03:12:38.633Z,261.43
2017-09-27T03:15:11.011Z,265.50
2017-09-27T03:17:43.318Z,261.30
2017-09-27T03:20:15.705Z,250.97
2017-09-27T03:22:48.110Z,233.03
2017-09-27T03:25:20.542Z,244.10
2017-09-27T03:27:53.553Z,244.17
2017-09-27T03:30:25.840Z,256.20
2017-09-27T03:32:58.239Z,273.53
2017-09-27T03:35:31.324Z,242.20
2017-09-27T03:38:04.313Z,260.33
2017-09-27T03:40:36.713Z,252.03
2017-09-27T03:43:09.040Z,250.93
2017-09-27T03:45:41.259Z,236.40
2017-09-27T03:48:13.436Z,240.60
2017-09-27T03:50:45.808Z,243.73
2017-09-27T03:53:18.118Z,225.60
2017-09-27T03:55:50.405Z,218.20
2017-09-27T03:58:22.583Z,233.73
2017-09-27T04:00:54.877Z,227.83
2017-09-27T04:03:27.054Z,232.80
2017-09-27T04:05:59.376Z,226.37
2017-09-27T04:08:31.734Z,233.43
2017-09-27T04:11:04.033Z,217.30
2017-09-27T04:13:36.238Z,211.80
2017-09-27T04:16:08.616Z,227.27
2017-09-27T04:18:40.882Z,236.57
2017-09-27T04:21:13.933Z,229.37
2017-09-27T04:23:46.398Z,258.47
2017-09-27T04:26:18.792Z,249.23
2017-09-27T04:28:51.864Z,235.23
2017-09-27T04:31:24.144Z,243.27
2017-09-27T04:33:56.480Z,247.93
2017-09-27T04:36:29.574Z,238.90
2017-09-27T04:39:01.920Z,238.10
2017-09-27T04:41:34.293Z,229.57
2017-09-27T04:44:06.770Z,240.17
2017-09-27T04:46:39.212Z,244.20
2017-09-27T04:49:11.581Z,241.10
2017-09-27T04:51:43.818Z,236.93
2017-09-27T04:54:16.851Z,263.27
2017-09-27T04:56:49.237Z,252.53
2017-09-27T04:59:21.649Z,248.93
2017-09-27T05:01:53.857Z,264.50
2017-09-27T05:04:26.260Z,261.97
2017-09-27T05:06:58.446Z,253.93
2017-09-27T05:09:30.650Z,255.17
2017-09-27T05:12:02.905Z,244.00
2017-09-27T05:14:35.178Z,268.03
2017-09-27T05:17:07.609Z,245.30
2017-09-27T05:19:40.700Z,259.90
2017-09-27T05:22:13.020Z,261.57
2017-09-27T05:24:45.437Z,273.90
2017-09-27T05:27:17.616Z,293.57
2017-09-27T05:29:49.906Z,278.23
2017-09-27T05:32:22.282Z,286.77
2017-09-27T05:34:54.679Z,288.60
2017-09-27T05:37:27.143Z,278.43
2017-09-27T05:40:00.353Z,285.90
2017-09-27T05:42:32.527Z,292.30
2017-09-27T05:45:04.830Z,286.93
2017-09-27T05:47:37.085Z,287.83
2017-09-27T05:50:09.277Z,275.70
2017-09-27T05:52:41.716Z,291.20
2017-09-27T05:55:14.056Z,276.17
2017-09-27T05:57:47.141Z,253.03
2017-09-27T06:00:19.444Z,277.97
2017-09-27T06:02:51.728Z,261.70
2017-09-27T06:05:24.108Z,277.93
2017-09-27T06:07:57.219Z,280.23
2017-09-27T06:10:29.493Z,259.60
2017-09-27T06:13:01.905Z,287.23
2017-09-27T06:15:34.230Z,293.03
2017-09-27T06:18:06.574Z,265.93
2017-09-27T06:20:38.890Z,279.83
2017-09-27T06:23:11.207Z,273.67
2017-09-27T06:25:43.345Z,295.57
2017-09-27T06:28:15.813Z,250.53
2017-09-27T06:30:48.053Z,238.50
2017-09-27T06:33:20.359Z,236.90
2017-09-27T06:35:52.712Z,259.33
2017-09-27T06:38:25.848Z,223.13
2017-09-27T06:40:58.083Z,239.17
2017-09-27T06:43:30.472Z,252.13
2017-09-27T06:46:02.822Z,237.93
2017-09-27T06:48:35.193Z,253.70
2017-09-27T06:51:07.454Z,240.23
2017-09-27T06:53:39.837Z,235.10
2017-09-27T06:56:12.238Z,238.13
2017-09-27T06:58:45.417Z,225.07
2017-09-27T07:01:17.584Z,225.60
2017-09-27T07:03:49.825Z,206.20
2017-09-27T07:06:23.854Z,220.10
2017-09-27T07:08:56.245Z,216.20
2017-09-27T07:11:28.433Z,217.87
2017-09-27T07:14:01.476Z,210.27
2017-09-27T07:16:34.522Z,219.87
2017-09-27T07:19:06.745Z,223.07
2017-09-27T07:21:38.864Z,228.97
2017-09-27T07:24:11.286Z,211.70
2017-09-27T07:26:43.645Z,218.97
2017-09-27T07:29:16.022Z,203.33
2017-09-27T07:31:48.393Z,183.10
2017-09-27T07:34:20.810Z,174.97
2017-09-27T07:36:53.221Z,183.47
2017-09-27T07:39:25.642Z,200.70
2017-09-27T07:41:58.036Z,185.23
2017-09-27T07:44:30.216Z,163.13
2017-09-27T07:47:03.253Z,180.50
2017-09-27T07:49:35.489Z,168.97
2017-09-27T07:52:07.809Z,183.90
2017-09-27T07:54:40.351Z,172.87
2017-09-27T07:57:12.874Z,158.20
2017-09-27T07:59:45.247Z,167.87
2017-09-27T08:02:17.572Z,168.07
2017-09-27T08:04:50.598Z,183.97
2017-09-27T08:07:22.734Z,171.67
2017-09-27T08:09:55.145Z,168.47
2017-09-27T08:12:27.491Z,157.57
2017-09-27T08:14:59.855Z,168.87
2017-09-27T08:17:32.211Z,160.33
2017-09-27T08:20:04.488Z,162.10
2017-09-27T08:22:36.922Z,158.47
2017-09-27T08:25:09.119Z,161.30
2017-09-27T08:27:41.374Z,158.37
2017-09-27T08:30:13.691Z,162.43
2017-09-27T08:32:46.029Z,152.97
2017-09-27T08:35:18.514Z,162.53
2017-09-27T08:37:50.769Z,149.13
2017-09-27T08:40:23.206Z,159.40
2017-09-27T08:42:55.624Z,152.23
2017-09-27T08:45:28.001Z,147.10
2017-09-27T08:48:00.349Z,158.80
2017-09-27T08:50:32.706Z,146.30
2017-09-27T08:53:05.021Z,157.60
2017-09-27T08:55:37.288Z,140.23
2017-09-27T08:58:10.380Z,144.93
2017-09-27T09:00:42.828Z,153.60
2017-09-27T09:03:15.185Z,146.57
2017-09-27T09:05:47.478Z,134.13
2017-09-27T09:08:19.650Z,130.97
2017-09-27T09:10:52.021Z,128.97
2017-09-27T09:13:24.382Z,143.27
2017-09-27T09:15:56.783Z,143.73
2017-09-27T09:18:29.098Z,131.27
2017-09-27T09:21:01.311Z,130.57
2017-09-27T09:23:33.457Z,117.40
2017-09-27T09:26:06.469Z,119.37
2017-09-27T09:28:38.831Z,122.40
2017-09-27T09:31:11.011Z,108.30
2017-09-27T09:33:43.241Z,105.00
2017-09-27T09:36:15.548Z,94.63
2017-09-27T09:38:48.487Z,94.47
2017-09-27T09:41:20.980Z,90.10
2017-09-27T09:43:53.175Z,99.57
2017-09-27T09:46:25.393Z,86.03
2017-09-27T09:48:57.749Z,95.43
2017-09-27T09:51:29.996Z,108.90
2017-09-27T09:54:02.184Z,83.80
2017-09-27T09:56:34.330Z,89.90
2017-09-27T09:59:07.404Z,86.13
2017-09-27T10:01:40.446Z,92.90
2017-09-27T10:04:12.840Z,88.60
2017-09-27T10:06:44.993Z,89.53
2017-09-27T10:09:17.290Z,80.97
2017-09-27T10:11:49.700Z,90.30
2017-09-27T10:14:22.101Z,81.50
2017-09-27T10:16:54.447Z,83.10
2017-09-27T10:19:27.041Z,78.90
2017-09-27T10:21:59.228Z,82.33
2017-09-27T10:27:11.302Z,87.70
2017-09-27T10:29:43.584Z,92.63
2017-09-27T10:32:15.995Z,85.70
2017-09-27T10:34:48.347Z,78.80
2017-09-27T10:37:20.612Z,72.10
2017-09-27T10:39:53.040Z,76.80
2017-09-27T10:42:25.451Z,70.27
2017-09-27T10:44:57.780Z,80.50
2017-09-27T10:47:30.926Z,71.27
2017-09-27T10:50:03.293Z,83.50
2017-09-27T10:52:35.647Z,73.17
2017-09-27T10:55:07.958Z,77.50
2017-09-27T10:57:40.162Z,71.43
2017-09-27T11:00:12.511Z,72.77
2017-09-27T11:02:45.629Z,82.73
2017-09-27T11:05:17.842Z,71.00
2017-09-27T11:07:50.165Z,65.73
2017-09-27T11:10:22.482Z,87.07
2017-09-27T11:12:54.724Z,60.67
2017-09-27T11:15:26.924Z,66.77
2017-09-27T11:18:01.111Z,71.97
2017-09-27T11:20:34.186Z,57.43
2017-09-27T11:23:06.319Z,56.07
2017-09-27T11:25:38.634Z,55.00
2017-09-27T11:28:11.105Z,63.40
2017-09-27T11:30:43.503Z,64.47
2017-09-27T11:33:16.533Z,73.90
2017-09-27T11:35:48.786Z,66.97
2017-09-27T11:38:21.126Z,55.33
2017-09-27T11:40:53.299Z,60.30
2017-09-27T11:43:25.589Z,58.30
2017-09-27T11:45:58.594Z,57.97
2017-09-27T11:48:30.841Z,55.90
2017-09-27T11:51:03.312Z,60.83
2017-09-27T11:53:36.356Z,52.23
2017-09-27T11:56:08.538Z,63.13
2017-09-27T11:58:40.925Z,57.00
2017-09-27T12:01:13.188Z,54.77
2017-09-27T12:03:45.422Z,57.10
2017-09-27T12:06:18.159Z,59.07
2017-09-27T12:08:50.494Z,52.83
2017-09-27T12:11:22.979Z,61.50
2017-09-27T12:13:55.241Z,48.07
2017-09-27T12:16:27.800Z,41.97
2017-09-27T12:19:00.970Z,53.53
2017-09-27T12:21:33.701Z,55.13
2017-09-27T12:24:06.041Z,53.77
2017-09-27T12:26:38.325Z,47.70
2017-09-27T12:29:10.746Z,49.30
2017-09-27T12:31:43.243Z,53.17
2017-09-27T12:34:16.310Z,53.10
2017-09-27T12:36:48.569Z,44.93
2017-09-27T12:39:20.918Z,45.70
2017-09-27T12:41:53.259Z,54.90
2017-09-27T12:44:25.496Z,48.03
2017-09-27T12:46:57.873Z,52.73
2017-09-27T12:49:30.042Z,60.00
2017-09-27T12:52:03.779Z,50.53
2017-09-27T12:54:35.972Z,47.97
2017-09-27T12:57:08.391Z,48.00
2017-09-27T12:59:40.614Z,49.13
2017-09-27T13:02:12.947Z,49.27
2017-09-27T13:04:45.937Z,44.20
2017-09-27T13:07:18.300Z,42.13
2017-09-27T13:09:50.762Z,47.40
2017-09-27T13:12:23.067Z,49.23
2017-09-27T13:14:55.572Z,46.40
2017-09-27T13:17:28.147Z,48.03
2017-09-27T13:20:00.560Z,46.77
2017-09-27T13:22:33.075Z,38.53
2017-09-27T13:25:05.727Z,39.43
2017-09-27T13:27:38.281Z,41.80
2017-09-27T13:30:10.720Z,45.97
2017-09-27T13:32:43.706Z,43.73
2017-09-27T13:35:15.998Z,47.30
2017-09-27T13:37:48.319Z,43.13
2017-09-27T13:40:20.706Z,51.03
2017-09-27T13:42:53.052Z,46.13
2017-09-27T13:45:26.199Z,38.03
2017-09-27T13:47:58.718Z,43.50
2017-09-27T13:50:31.960Z,51.13
2017-09-27T13:53:04.245Z,38.27
2017-09-27T13:55:36.484Z,43.90
2017-09-27T13:58:09.010Z,40.90
2017-09-27T14:00:41.323Z,43.03
2017-09-27T14:03:13.808Z,39.03
2017-09-27T14:05:46.088Z,37.40
2017-09-27T14:08:19.327Z,39.03
2017-09-27T14:10:52.488Z,34.40
2017-09-27T14:13:24.780Z,39.27
2017-09-27T14:15:57.132Z,41.63
2017-09-27T14:18:37.182Z,40.20
2017-09-27T14:21:09.299Z,39.27
2017-09-27T14:23:41.536Z,44.30
2017-09-27T14:26:14.062Z,35.40
2017-09-27T14:28:46.226Z,41.50
2017-09-27T14:31:19.433Z,32.10
2017-09-27T14:33:51.789Z,41.67
2017-09-27T14:36:24.100Z,45.50
2017-09-27T14:38:56.472Z,34.87
2017-09-27T14:41:28.897Z,35.73
2017-09-27T14:44:01.236Z,56.13
2017-09-27T14:46:33.445Z,37.23
2017-09-27T14:49:05.792Z,36.93
2017-09-27T14:51:38.337Z,36.00
2017-09-27T14:54:10.690Z,41.10
2017-09-27T14:56:42.864Z,32.97
2017-09-27T14:59:15.122Z,29.20
2017-09-27T15:01:48.292Z,34.83
2017-09-27T15:04:20.515Z,49.27
2017-09-27T15:06:54.384Z,31.43
2017-09-27T15:09:26.726Z,32.83
2017-09-27T15:11:59.045Z,38.87
2017-09-27T15:14:31.622Z,38.33
2017-09-27T15:17:04.117Z,29.90
2017-09-27T15:19:36.459Z,28.50
2017-09-27T15:22:08.847Z,29.63
2017-09-27T15:24:41.150Z,36.43
2017-09-27T15:27:13.429Z,28.13
2017-09-27T15:29:45.851Z,33.47
2017-09-27T15:32:18.135Z,34.97
2017-09-27T15:34:50.571Z,33.10
2017-09-27T15:37:22.818Z,42.20
2017-09-27T15:39:55.287Z,35.00
2017-09-27T15:42:27.691Z,33.53
2017-09-27T15:44:59.858Z,32.50
2017-09-27T15:47:32.065Z,33.83
2017-09-27T15:50:04.563Z,51.17
2017-09-27T15:52:37.821Z,32.90
2017-09-27T15:55:10.320Z,32.27
2017-09-27T15:57:42.612Z,38.90
2017-09-27T16:00:15.027Z,35.13
2017-09-27T16:02:47.866Z,37.43
2017-09-27T16:05:20.726Z,29.77
2017-09-27T16:07:53.242Z,33.77
2017-09-27T16:10:25.718Z,31.13
2017-09-27T16:12:57.961Z,33.13
2017-09-27T16:15:30.353Z,35.73
2017-09-27T16:18:02.855Z,38.80
2017-09-27T16:20:35.393Z,31.43
2017-09-27T16:23:07.608Z,35.33
2017-09-27T16:25:39.791Z,37.40
2017-09-27T16:28:12.270Z,38.50
2017-09-27T16:30:44.655Z,37.40
2017-09-27T16:33:16.997Z,40.10
2017-09-27T16:35:49.359Z,33.50
2017-09-27T16:38:21.639Z,36.43
2017-09-27T16:40:54.112Z,46.97
2017-09-27T16:43:26.315Z,33.50
2017-09-27T16:45:58.643Z,41.20
2017-09-27T16:48:31.127Z,35.53
2017-09-27T16:51:03.834Z,31.03
2017-09-27T16:53:36.258Z,37.23
2017-09-27T16:56:08.675Z,35.97
2017-09-27T16:58:41.213Z,31.20
2017-09-27T17:01:13.504Z,36.93
2017-09-27T17:03:45.793Z,35.57
2017-09-27T17:06:19.402Z,39.03
2017-09-27T17:08:51.856Z,32.67
2017-09-27T17:11:24.178Z,30.43
2017-09-27T17:13:57.792Z,33.43
2017-09-27T17:16:30.943Z,29.40
2017-09-27T17:19:03.441Z,50.83
2017-09-27T17:21:35.870Z,36.83
2017-09-27T17:24:09.392Z,36.20
2017-09-27T17:26:41.713Z,36.83
2017-09-27T17:29:13.882Z,32.60
2017-09-27T17:31:47.104Z,33.43
2017-09-27T17:34:20.431Z,34.67
2017-09-27T17:36:53.551Z,35.43
2017-09-27T17:39:27.139Z,32.10
2017-09-27T17:41:59.389Z,35.40
2017-09-27T17:44:31.811Z,30.93
2017-09-27T17:47:04.891Z,34.93
2017-09-27T17:49:38.057Z,35.13
2017-09-27T17:52:11.049Z,33.33
2017-09-27T17:54:43.508Z,36.30
2017-09-27T17:57:15.680Z,44.87
2017-09-27T17:59:47.984Z,28.73
2017-09-27T18:02:20.395Z,30.67
2017-09-27T18:08:03.366Z,35.20
2017-09-27T18:13:39.058Z,32.37
2017-09-27T18:16:13.200Z,35.33
2017-09-27T18:18:45.557Z,30.57
2017-09-27T18:21:18.013Z,27.80
2017-09-27T18:23:50.205Z,34.57
2017-09-27T18:26:22.581Z,37.33
2017-09-27T18:28:54.917Z,31.13
2017-09-27T18:31:27.340Z,30.17
2017-09-27T18:34:00.430Z,32.60
2017-09-27T18:36:32.933Z,33.50
2017-09-27T18:39:06.041Z,29.63
2017-09-27T18:41:38.323Z,32.17
2017-09-27T18:44:10.591Z,31.20
2017-09-27T18:46:42.781Z,27.87
2017-09-27T18:49:15.074Z,35.50
2017-09-27T18:51:47.404Z,47.43
2017-09-27T18:54:19.614Z,33.83
2017-09-27T18:56:51.983Z,38.43
2017-09-27T18:59:24.468Z,31.23
2017-09-27T19:01:56.887Z,33.10
2017-09-27T19:04:29.555Z,35.97
2017-09-27T19:07:02.127Z,28.43
2017-09-27T19:09:34.458Z,33.87
2017-09-27T19:12:06.921Z,28.77
2017-09-27T19:14:39.213Z,36.57
2017-09-27T19:17:11.706Z,33.27
2017-09-27T19:22:23.850Z,29.43
2017-09-27T19:24:56.081Z,37.93
2017-09-27T19:27:28.434Z,37.07
2017-09-27T19:30:00.740Z,32.63
2017-09-27T19:32:33.074Z,32.00
2017-09-27T19:35:05.426Z,31.43
2017-09-27T19:37:37.981Z,36.73
2017-09-27T19:40:10.338Z,35.60
2017-09-27T19:42:43.012Z,40.57
2017-09-27T19:45:15.498Z,29.43
2017-09-27T19:47:47.683Z,34.33
2017-09-27T19:50:20.072Z,40.10
2017-09-27T19:52:52.296Z,36.13
2017-09-27T19:55:24.810Z,51.57
2017-09-27T19:57:57.841Z,31.40
2017-09-27T20:00:30.007Z,38.30
2017-09-27T20:03:02.437Z,36.80
2017-09-27T20:05:34.787Z,31.90
2017-09-27T20:08:07.219Z,36.23
2017-09-27T20:10:39.497Z,38.07
2017-09-27T20:13:11.895Z,33.20
2017-09-27T20:15:44.318Z,34.20
2017-09-27T20:18:16.762Z,41.90
2017-09-27T20:20:49.130Z,37.83
2017-09-27T20:23:21.502Z,41.93
2017-09-27T20:25:53.869Z,30.83
2017-09-27T20:28:26.959Z,31.40
2017-09-27T20:30:59.209Z,36.13
2017-09-27T20:33:31.473Z,34.47
2017-09-27T20:36:04.652Z,46.17
2017-09-27T20:38:36.926Z,30.90
2017-09-27T20:41:09.124Z,37.37
2017-09-27T20:43:41.452Z,40.10
2017-09-27T20:46:13.898Z,29.20
2017-09-27T20:48:46.264Z,32.63
2017-09-27T20:51:19.219Z,38.17
2017-09-27T20:53:51.545Z,32.70
2017-09-27T20:56:24.038Z,39.60
2017-09-27T20:58:56.337Z,44.37
2017-09-27T21:01:28.646Z,35.63
2017-09-27T21:04:01.066Z,40.50
2017-09-27T21:06:33.461Z,39.47
2017-09-27T21:09:05.899Z,35.53
2017-09-27T21:11:38.113Z,37.53
2017-09-27T21:14:10.386Z,34.50
2017-09-27T21:16:42.698Z,38.00
2017-09-27T21:19:15.680Z,31.30
2017-09-27T21:21:48.259Z,30.53
2017-09-27T21:24:20.600Z,33.83
2017-09-27T21:26:52.953Z,33.30
2017-09-27T21:29:25.186Z,33.60
2017-09-27T21:31:57.656Z,40.30
2017-09-27T21:34:29.854Z,39.50
2017-09-27T21:37:02.274Z,33.40
2017-09-27T21:39:34.733Z,38.90
2017-09-27T21:42:07.089Z,37.33
2017-09-27T21:44:39.504Z,32.00
2017-09-27T21:47:11.798Z,34.30
2017-09-27T21:49:44.433Z,35.23
2017-09-27T21:52:17.665Z,32.83
2017-09-27T21:54:49.939Z,32.93
2017-09-27T21:57:22.326Z,32.43
2017-09-27T21:59:54.584Z,35.03
2017-09-27T22:02:26.880Z,43.53
2017-09-27T22:04:59.127Z,31.70
2017-09-27T22:07:32.137Z,38.43
2017-09-27T22:10:04.879Z,37.30
2017-09-27T22:12:37.405Z,32.50
2017-09-27T22:15:09.734Z,34.57
2017-09-27T22:17:42.080Z,41.23
2017-09-27T22:20:14.680Z,32.07
2017-09-27T22:22:47.100Z,37.53
2017-09-27T22:25:19.582Z,35.40
2017-09-27T22:27:52.938Z,34.40
2017-09-27T22:30:25.334Z,40.03
2017-09-27T22:32:57.746Z,36.07
2017-09-27T22:35:30.108Z,39.77
2017-09-27T22:38:02.651Z,35.93
2017-09-27T22:40:35.798Z,36.37
2017-09-27T22:43:08.268Z,36.80
2017-09-27T22:45:40.640Z,33.53
2017-09-27T22:48:13.013Z,33.13
2017-09-27T22:50:45.392Z,36.20
2017-09-27T22:53:17.782Z,29.17
2017-09-27T22:55:50.585Z,33.43
2017-09-27T22:58:23.332Z,36.13
2017-09-27T23:00:55.693Z,38.27
2017-09-27T23:03:28.364Z,35.00
2017-09-27T23:06:00.934Z,31.57
2017-09-27T23:08:33.182Z,32.83
2017-09-27T23:11:05.648Z,32.90
2017-09-27T23:13:38.109Z,35.80
2017-09-27T23:16:10.571Z,37.37
2017-09-27T23:18:43.158Z,41.03
2017-09-27T23:21:15.615Z,37.63
2017-09-27T23:23:47.970Z,34.10
2017-09-27T23:26:20.805Z,40.70
2017-09-27T23:28:53.320Z,36.97
2017-09-27T23:31:25.633Z,40.50
2017-09-27T23:33:58.549Z,37.93
2017-09-27T23:36:30.941Z,48.63
2017-09-27T23:39:03.406Z,42.83
2017-09-27T23:41:35.766Z,38.53
2017-09-27T23:44:08.256Z,34.07
2017-09-27T23:46:40.549Z,33.47
2017-09-27T23:49:12.874Z,34.97
2017-09-27T23:51:45.307Z,37.20
2017-09-27T23:54:17.683Z,33.53
2017-09-27T23:56:50.221Z,37.00
2017-09-27T23:59:23.278Z,31.60
